createdAt,value
2023-04-25T00:01:37.244Z,100523.22
2023-04-25T00:04:07.004Z,100529.50
2023-04-25T00:06:37.937Z,100525.13
2023-04-25T00:09:10.026Z,100518.84
2023-04-25T00:11:38.030Z,100521.56
2023-04-25T00:14:06.039Z,100517.41
2023-04-25T00:16:35.806Z,100524.53
2023-04-25T00:19:05.435Z,100527.25
2023-04-25T00:21:33.789Z,100529.94
2023-04-25T00:24:01.709Z,100532.66
2023-04-25T00:26:31.002Z,100543.53
2023-04-25T00:28:59.571Z,100532.66
2023-04-25T00:31:27.531Z,100532.88
2023-04-25T00:33:55.536Z,100532.06
2023-04-25T00:36:23.446Z,100528.50
2023-04-25T00:38:51.570Z,100536.66
2023-04-25T00:41:19.446Z,100532.25
2023-04-25T00:43:49.195Z,100537.69
2023-04-25T00:46:17.293Z,100530.63
2023-04-25T00:48:45.459Z,100535.81
2023-04-25T00:51:14.436Z,100528.97
2023-04-25T00:53:42.310Z,100529.78
2023-04-25T00:56:10.218Z,100530.63
2023-04-25T00:58:38.367Z,100529.78
2023-04-25T01:01:07.878Z,100524.38
2023-04-25T01:03:36.479Z,100525.19
2023-04-25T01:06:04.769Z,100525.19
2023-04-25T01:08:33.032Z,100532.25
2023-04-25T01:11:01.038Z,100529.53
2023-04-25T01:13:28.893Z,100533.34
2023-04-25T01:15:57.191Z,100537.94
2023-04-25T01:18:26.729Z,100536.06
2023-04-25T01:20:54.690Z,100528.13
2023-04-25T01:23:24.144Z,100531.69
2023-04-25T01:25:52.077Z,100537.09
2023-04-25T01:28:20.246Z,100530.84
2023-04-25T01:30:48.191Z,100539.00
2023-04-25T01:33:16.479Z,100531.69
2023-04-25T01:35:44.375Z,100539.81
2023-04-25T01:38:14.151Z,100534.38
2023-04-25T01:40:43.469Z,100533.56
2023-04-25T01:43:13.025Z,100535.44
2023-04-25T01:45:42.231Z,100536.47
2023-04-25T01:48:10.675Z,100544.41
2023-04-25T01:50:39.819Z,100536.69
2023-04-25T01:53:07.736Z,100538.16
2023-04-25T01:55:35.692Z,100540.03
2023-04-25T01:58:09.998Z,100540.88
2023-04-25T02:00:39.831Z,100545.47
2023-04-25T02:03:07.908Z,100548.19
2023-04-25T02:05:38.839Z,100551.72
2023-04-25T02:08:07.344Z,100552.78
2023-04-25T02:10:35.305Z,100550.06
2023-04-25T02:13:03.382Z,100558.22
2023-04-25T02:15:32.888Z,100554.66
2023-04-25T02:18:02.159Z,100558.22
2023-04-25T02:20:30.999Z,100560.09
2023-04-25T02:22:58.931Z,100558.22
2023-04-25T02:25:27.070Z,100565.53
2023-04-25T02:27:55.669Z,100561.97
2023-04-25T02:30:23.603Z,100553.81
2023-04-25T02:32:52.904Z,100562.81
2023-04-25T02:35:21.050Z,100548.41
2023-04-25T02:37:49.235Z,100556.34
2023-04-25T02:40:17.132Z,100554.66
2023-04-25T02:42:46.733Z,100554.66
2023-04-25T02:45:14.652Z,100556.53
2023-04-25T02:47:42.915Z,100558.44
2023-04-25T02:50:12.340Z,100555.72
2023-04-25T02:52:40.258Z,100550.28
2023-04-25T02:55:08.845Z,100543.81
2023-04-25T02:57:37.061Z,100546.75
2023-04-25T03:00:08.368Z,100537.78
2023-04-25T03:02:36.334Z,100542.13
2023-04-25T03:05:04.501Z,100544.84
2023-04-25T03:07:34.108Z,100551.34
2023-04-25T03:10:02.027Z,100545.91
2023-04-25T03:12:29.919Z,100551.34
2023-04-25T03:14:57.834Z,100542.59
2023-04-25T03:17:26.068Z,100550.28
2023-04-25T03:19:53.962Z,100553.00
2023-04-25T03:22:21.925Z,100550.28
2023-04-25T03:24:51.601Z,100556.53
2023-04-25T03:27:19.497Z,100553.81
2023-04-25T03:29:47.389Z,100550.06
2023-04-25T03:32:15.294Z,100551.94
2023-04-25T03:34:43.241Z,100547.81
2023-04-25T03:37:11.163Z,100558.22
2023-04-25T03:39:39.838Z,100554.66
2023-04-25T03:42:09.087Z,100560.94
2023-04-25T03:44:36.998Z,100561.75
2023-04-25T03:47:04.978Z,100569.91
2023-04-25T03:49:33.453Z,100561.97
2023-04-25T03:52:01.392Z,100559.88
2023-04-25T03:54:29.324Z,100566.97
2023-04-25T03:56:57.203Z,100577.00
2023-04-25T03:59:27.115Z,100570.75
2023-04-25T04:01:55.048Z,100564.47
2023-04-25T04:04:23.161Z,100574.28
2023-04-25T04:06:51.828Z,100572.41
2023-04-25T04:09:20.560Z,100566.16
2023-04-25T04:11:48.485Z,100574.09
2023-04-25T04:14:16.447Z,100569.91
2023-04-25T04:16:45.877Z,100570.53
2023-04-25T04:19:14.215Z,100577.00
2023-04-25T04:21:42.139Z,100586.00
2023-04-25T04:24:11.298Z,100584.13
2023-04-25T04:26:39.727Z,100586.84
2023-04-25T04:29:08.114Z,100580.56
2023-04-25T04:31:36.879Z,100586.00
2023-04-25T04:34:07.059Z,100594.16
2023-04-25T04:36:34.960Z,100584.13
2023-04-25T04:39:04.393Z,100596.84
2023-04-25T04:41:32.331Z,100596.84
2023-04-25T04:44:02.153Z,100595.81
2023-04-25T04:46:30.159Z,100607.72
2023-04-25T04:48:58.367Z,100600.41
2023-04-25T04:51:27.692Z,100614.19
2023-04-25T04:53:59.247Z,100608.78
2023-04-25T04:56:27.440Z,100615.88
2023-04-25T04:58:55.609Z,100621.31
2023-04-25T05:01:23.590Z,100615.03
2023-04-25T05:03:52.688Z,100625.06
2023-04-25T05:06:21.170Z,100625.91
2023-04-25T05:08:50.784Z,100631.31
2023-04-25T05:11:18.761Z,100636.75
2023-04-25T05:13:46.738Z,100636.75
2023-04-25T05:16:14.681Z,100639.47
2023-04-25T05:18:43.125Z,100638.63
2023-04-25T05:21:11.042Z,100652.22
2023-04-25T05:23:38.933Z,100651.38
2023-04-25T05:26:14.539Z,100654.94
2023-04-25T05:28:42.852Z,100661.22
2023-04-25T05:31:11.886Z,100657.66
2023-04-25T05:33:39.834Z,100668.53
2023-04-25T05:36:08.768Z,100664.97
2023-04-25T05:38:36.982Z,100664.75
2023-04-25T05:41:05.026Z,100669.34
2023-04-25T05:43:34.362Z,100672.06
2023-04-25T05:46:02.642Z,100667.47
2023-04-25T05:48:31.055Z,100673.75
2023-04-25T05:50:58.929Z,100674.56
2023-04-25T05:53:26.809Z,100677.50
2023-04-25T05:55:54.769Z,100681.88
2023-04-25T05:58:23.037Z,100693.59
2023-04-25T06:00:52.679Z,100687.31
2023-04-25T06:03:21.555Z,100686.25
2023-04-25T06:05:49.675Z,100691.69
2023-04-25T06:08:17.921Z,100690.03
2023-04-25T06:10:45.860Z,100696.31
2023-04-25T06:13:13.753Z,100690.03
2023-04-25T06:15:41.719Z,100697.94
2023-04-25T06:18:11.525Z,100699.03
2023-04-25T06:20:39.433Z,100698.19
2023-04-25T06:23:07.326Z,100703.63
2023-04-25T06:25:35.357Z,100696.31
2023-04-25T06:28:03.581Z,100699.03
2023-04-25T06:30:31.475Z,100706.34
2023-04-25T06:32:59.480Z,100707.16
2023-04-25T06:35:28.799Z,100709.66
2023-04-25T06:37:57.047Z,100698.19
2023-04-25T06:40:25.226Z,100705.50
2023-04-25T06:42:53.075Z,100716.38
2023-04-25T06:45:20.965Z,100709.66
2023-04-25T06:47:49.321Z,100714.25
2023-04-25T06:50:17.225Z,100715.31
2023-04-25T06:52:46.600Z,100718.03
2023-04-25T06:55:14.520Z,100718.03
2023-04-25T06:57:42.713Z,100731.38
2023-04-25T07:00:14.808Z,100724.28
2023-04-25T07:02:44.539Z,100728.91
2023-04-25T07:05:12.545Z,100731.38
2023-04-25T07:07:40.890Z,100739.75
2023-04-25T07:10:10.858Z,100743.28
2023-04-25T07:12:38.753Z,100742.25
2023-04-25T07:15:11.089Z,100739.75
2023-04-25T07:17:39.302Z,100747.91
2023-04-25T07:20:10.246Z,100753.09
2023-04-25T07:22:38.227Z,100755.81
2023-04-25T07:25:07.064Z,100752.06
2023-04-25T07:27:36.609Z,100753.94
2023-04-25T07:30:05.347Z,100748.72
2023-04-25T07:32:33.316Z,100748.50
2023-04-25T07:35:02.689Z,100755.81
2023-04-25T07:37:30.938Z,100753.09
2023-04-25T07:39:58.874Z,100741.66
2023-04-25T07:42:26.830Z,100755.81
2023-04-25T07:44:56.184Z,100750.38
2023-04-25T07:47:24.388Z,100761.25
2023-04-25T07:49:52.411Z,100760.22
2023-04-25T07:52:20.359Z,100772.13
2023-04-25T07:54:48.587Z,100764.81
2023-04-25T07:57:18.020Z,100766.47
2023-04-25T07:59:45.998Z,100771.53
2023-04-25T08:02:15.467Z,100773.78
2023-04-25T08:04:43.482Z,100778.38
2023-04-25T08:07:11.947Z,100774.44
2023-04-25T08:09:40.357Z,100789.25
2023-04-25T08:12:08.750Z,100794.88
2023-04-25T08:14:38.337Z,100799.53
2023-04-25T08:17:06.715Z,100805.56
2023-04-25T08:19:36.055Z,100815.38
2023-04-25T08:22:04.013Z,100816.41
2023-04-25T08:24:31.971Z,100813.69
2023-04-25T08:27:00.068Z,100812.88
2023-04-25T08:29:29.553Z,100814.53
2023-04-25T08:31:57.822Z,100825.41
2023-04-25T08:34:26.552Z,100830.00
2023-04-25T08:36:55.944Z,100832.72
2023-04-25T08:39:24.160Z,100829.41
2023-04-25T08:41:53.644Z,100836.25
2023-04-25T08:44:21.642Z,100836.72
2023-04-25T08:46:51.454Z,100837.09
2023-04-25T08:49:19.888Z,100837.09
2023-04-25T08:51:48.894Z,100837.09
2023-04-25T08:56:49.941Z,100846.09
2023-04-25T08:59:18.515Z,100837.53
2023-04-25T09:01:46.438Z,100851.53
2023-04-25T09:04:14.585Z,100846.09
2023-04-25T09:06:42.546Z,100858.63
2023-04-25T09:09:11.691Z,100864.06
2023-04-25T09:11:41.679Z,100871.38
2023-04-25T09:14:13.931Z,100869.69
2023-04-25T09:17:00.539Z,100872.22
2023-04-25T09:19:39.843Z,100878.47
2023-04-25T09:22:08.818Z,100878.69
2023-04-25T09:24:37.862Z,100872.41
2023-04-25T09:27:08.033Z,100879.53
2023-04-25T09:29:37.286Z,100883.06
2023-04-25T09:32:16.620Z,100882.25
2023-04-25T09:34:45.755Z,100879.53
2023-04-25T09:37:13.749Z,100883.91
2023-04-25T09:39:41.965Z,100893.09
2023-04-25T09:42:11.503Z,100899.38
2023-04-25T09:44:39.418Z,100894.78
2023-04-25T09:47:09.952Z,100900.22
2023-04-25T09:49:40.578Z,100898.31
2023-04-25T09:52:08.588Z,100905.66
2023-04-25T09:54:36.522Z,100905.66
2023-04-25T09:57:08.327Z,100904.81
2023-04-25T09:59:37.603Z,100910.25
2023-04-25T10:02:05.587Z,100905.66
2023-04-25T10:04:34.158Z,100904.81
2023-04-25T10:07:02.413Z,100911.06
2023-04-25T10:09:31.160Z,100919.22
2023-04-25T10:11:59.096Z,100923.59
2023-04-25T10:14:27.219Z,100927.38
2023-04-25T10:16:56.535Z,100933.41
2023-04-25T10:19:24.717Z,100937.16
2023-04-25T10:21:54.241Z,100934.44
2023-04-25T10:24:22.149Z,100926.09
2023-04-25T10:26:50.069Z,100934.44
2023-04-25T10:29:24.150Z,100943.44
2023-04-25T10:31:52.103Z,100945.13
2023-04-25T10:34:21.638Z,100951.59
2023-04-25T10:36:53.441Z,100944.28
2023-04-25T10:39:25.422Z,100953.25
2023-04-25T10:41:58.119Z,100947.44
2023-04-25T10:44:28.910Z,100952.44
2023-04-25T10:46:57.795Z,100953.47
2023-04-25T10:49:34.700Z,100955.34
2023-04-25T10:52:16.368Z,100957.88
2023-04-25T10:54:45.247Z,100952.44
2023-04-25T10:57:32.416Z,100951.59
2023-04-25T11:00:07.173Z,100949.72
2023-04-25T11:02:38.786Z,100947.19
2023-04-25T11:05:09.467Z,100949.72
2023-04-25T11:07:40.529Z,100947.00
2023-04-25T11:10:09.302Z,100950.56
2023-04-25T11:12:37.296Z,100951.59
2023-04-25T11:15:08.249Z,100955.16
2023-04-25T11:17:36.560Z,100953.25
2023-04-25T11:20:08.416Z,100949.91
2023-04-25T11:22:37.739Z,100957.88
2023-04-25T11:25:09.322Z,100954.09
2023-04-25T11:27:40.155Z,100955.97
2023-04-25T11:30:17.540Z,100955.16
2023-04-25T11:32:45.503Z,100949.50
2023-04-25T11:35:13.639Z,100951.38
2023-04-25T11:37:43.178Z,100947.00
2023-04-25T11:40:12.668Z,100947.84
2023-04-25T11:42:40.833Z,100943.25
2023-04-25T11:45:11.866Z,100949.50
2023-04-25T11:47:40.200Z,100935.91
2023-04-25T11:50:09.458Z,100945.75
2023-04-25T11:52:38.916Z,100948.47
2023-04-25T11:55:11.366Z,100933.00
2023-04-25T11:57:40.572Z,100944.91
2023-04-25T12:00:16.531Z,100943.25
2023-04-25T12:02:46.511Z,100941.34
2023-04-25T12:05:31.356Z,100949.50
2023-04-25T12:08:00.766Z,100953.06
2023-04-25T12:10:30.122Z,100959.53
2023-04-25T12:12:58.059Z,100962.06
2023-04-25T12:15:26.841Z,100964.97
2023-04-25T12:17:56.148Z,100984.63
2023-04-25T12:20:26.860Z,100980.22
2023-04-25T12:22:54.788Z,100987.53
2023-04-25T12:25:40.447Z,100990.91
2023-04-25T12:28:15.402Z,100990.91
2023-04-25T12:30:57.183Z,100995.06
2023-04-25T12:33:25.253Z,100996.94
2023-04-25T12:35:53.337Z,100999.66
2023-04-25T12:38:25.748Z,100998.81
2023-04-25T12:40:55.110Z,101002.56
2023-04-25T12:43:23.444Z,101007.81
2023-04-25T12:45:52.198Z,101012.19
2023-04-25T12:48:20.503Z,101008.44
2023-04-25T12:50:50.002Z,101012.19
2023-04-25T12:53:18.578Z,101014.91
2023-04-25T12:55:47.661Z,101012.41
2023-04-25T12:58:17.367Z,101013.88
2023-04-25T13:00:45.602Z,101019.31
2023-04-25T13:03:14.152Z,101009.47
2023-04-25T13:05:42.400Z,101012.19
2023-04-25T13:08:10.668Z,101016.59
2023-04-25T13:10:40.358Z,101023.06
2023-04-25T13:13:08.404Z,101026.63
2023-04-25T13:15:37.758Z,101021.19
2023-04-25T13:18:06.481Z,101024.72
2023-04-25T13:20:34.553Z,101017.63
2023-04-25T13:23:03.035Z,101019.50
2023-04-25T13:25:31.150Z,101023.06
2023-04-25T13:27:59.358Z,101028.28
2023-04-25T13:30:27.355Z,101029.13
2023-04-25T13:32:58.273Z,101020.97
2023-04-25T13:35:26.796Z,101028.06
2023-04-25T13:37:54.795Z,101026.41
2023-04-25T13:40:24.686Z,101026.19
2023-04-25T13:42:53.422Z,101028.69
2023-04-25T13:45:21.637Z,101027.66
2023-04-25T13:47:49.945Z,101030.38
2023-04-25T13:50:19.358Z,101029.53
2023-04-25T13:52:47.342Z,101026.81
2023-04-25T13:55:15.536Z,101035.81
2023-04-25T13:57:43.604Z,101033.09
2023-04-25T14:00:12.660Z,101026.81
2023-04-25T14:02:40.805Z,101029.53
2023-04-25T14:05:10.311Z,101028.69
2023-04-25T14:07:40.745Z,101034.13
2023-04-25T14:10:09.536Z,101030.56
2023-04-25T14:12:37.465Z,101027.66
2023-04-25T14:15:07.989Z,101034.13
2023-04-25T14:17:36.222Z,101034.13
2023-04-25T14:20:06.793Z,101036.84
2023-04-25T14:22:35.686Z,101038.72
2023-04-25T14:25:06.332Z,101044.16
2023-04-25T14:27:34.549Z,101030.16
2023-04-25T14:30:02.494Z,101050.44
2023-04-25T14:32:30.521Z,101039.56
2023-04-25T14:34:58.424Z,101038.72
2023-04-25T14:37:26.674Z,101044.16
2023-04-25T14:39:54.570Z,101036.84
2023-04-25T14:42:23.857Z,101040.81
2023-04-25T14:44:52.052Z,101042.47
2023-04-25T14:47:19.940Z,101038.94
2023-04-25T14:49:54.896Z,101038.09
2023-04-25T14:52:22.858Z,101041.66
2023-04-25T14:54:50.765Z,101038.09
2023-04-25T14:57:18.936Z,101024.31
2023-04-25T14:59:48.253Z,101040.81
2023-04-25T15:02:16.217Z,101037.03
2023-04-25T15:04:44.390Z,101037.28
2023-04-25T15:07:12.460Z,101042.72
2023-04-25T15:09:40.688Z,101046.25
2023-04-25T15:12:10.080Z,101046.25
2023-04-25T15:14:38.073Z,101048.16
2023-04-25T15:17:08.742Z,101048.16
2023-04-25T15:19:37.692Z,101042.72
2023-04-25T15:22:07.525Z,101045.44
2023-04-25T15:24:35.609Z,101044.78
2023-04-25T15:27:03.748Z,101047.31
2023-04-25T15:29:32.200Z,101048.16
2023-04-25T15:32:00.396Z,101059.03
2023-04-25T15:34:30.039Z,101047.31
2023-04-25T15:36:58.832Z,101057.09
2023-04-25T15:39:27.187Z,101054.38
2023-04-25T15:41:55.122Z,101059.03
2023-04-25T15:44:23.094Z,101062.78
2023-04-25T15:46:52.151Z,101056.31
2023-04-25T15:49:22.878Z,101050.88
2023-04-25T15:51:52.252Z,101048.97
2023-04-25T15:54:20.142Z,101059.03
2023-04-25T15:56:48.007Z,101061.72
2023-04-25T15:59:16.280Z,101053.59
2023-04-25T16:01:44.234Z,101056.31
2023-04-25T16:04:12.375Z,101046.47
2023-04-25T16:06:42.425Z,101057.34
2023-04-25T16:09:12.160Z,101051.91
2023-04-25T16:11:40.094Z,101058.38
2023-04-25T16:14:08.947Z,101060.06
2023-04-25T16:16:36.918Z,101060.91
2023-04-25T16:19:05.323Z,101065.50
2023-04-25T16:21:33.255Z,101061.72
2023-04-25T16:24:01.241Z,101066.34
2023-04-25T16:26:30.483Z,101059.03
2023-04-25T16:28:58.887Z,101063.38
2023-04-25T16:31:26.982Z,101065.91
2023-04-25T16:33:55.053Z,101065.06
2023-04-25T16:36:22.993Z,101068.81
2023-04-25T16:38:51.312Z,101070.69
2023-04-25T16:41:19.869Z,101067.97
2023-04-25T16:43:49.381Z,101069.88
2023-04-25T16:46:19.546Z,101067.16
2023-04-25T16:48:48.855Z,101075.31
2023-04-25T16:51:17.091Z,101076.13
2023-04-25T16:53:45.117Z,101068.81
2023-04-25T16:56:13.146Z,101076.13
2023-04-25T16:58:41.428Z,101073.41
2023-04-25T17:01:10.831Z,101069.06
2023-04-25T17:03:38.993Z,101066.09
2023-04-25T17:06:07.481Z,101073.41
2023-04-25T17:08:35.638Z,101072.38
2023-04-25T17:11:03.624Z,101072.38
2023-04-25T17:13:33.075Z,101075.09
2023-04-25T17:16:01.137Z,101075.09
2023-04-25T17:18:30.752Z,101075.53
2023-04-25T17:20:58.853Z,101076.75
2023-04-25T17:23:26.944Z,101083.03
2023-04-25T17:25:54.802Z,101089.31
2023-04-25T17:28:23.044Z,101087.19
2023-04-25T17:30:51.395Z,101099.53
2023-04-25T17:33:19.445Z,101094.13
2023-04-25T17:35:48.849Z,101096.81
2023-04-25T17:38:17.187Z,101097.47
2023-04-25T17:40:45.124Z,101107.25
2023-04-25T17:43:13.089Z,101103.50
2023-04-25T17:45:40.999Z,101110.63
2023-04-25T17:48:09.225Z,101109.59
2023-04-25T17:50:37.334Z,101114.81
2023-04-25T17:53:06.653Z,101112.91
2023-04-25T17:55:34.546Z,101121.28
2023-04-25T17:58:02.761Z,101124.41
2023-04-25T18:00:31.827Z,101121.69
2023-04-25T18:02:59.852Z,101123.38
2023-04-25T18:05:29.243Z,101133.41
2023-04-25T18:07:59.313Z,101134.25
2023-04-25T18:10:28.679Z,101127.75
2023-04-25T18:12:56.609Z,101142.19
2023-04-25T18:15:25.044Z,101143.25
2023-04-25T18:17:53.371Z,101148.44
2023-04-25T18:20:22.223Z,101150.97
2023-04-25T18:22:50.111Z,101145.31
2023-04-25T18:25:18.346Z,101153.28
2023-04-25T18:27:47.994Z,101165.00
2023-04-25T18:30:16.007Z,101164.16
2023-04-25T18:32:43.962Z,101166.63
2023-04-25T18:35:12.296Z,101167.47
2023-04-25T18:37:42.325Z,101161.19
2023-04-25T18:40:14.016Z,101168.31
2023-04-25T18:42:42.780Z,101172.72
2023-04-25T18:45:12.904Z,101176.28
2023-04-25T18:47:41.124Z,101173.13
2023-04-25T18:50:09.863Z,101177.09
2023-04-25T18:52:38.084Z,101187.97
2023-04-25T18:55:07.280Z,101177.97
2023-04-25T18:57:36.029Z,101178.16
2023-04-25T19:00:08.906Z,101193.22
2023-04-25T19:02:38.432Z,101190.50
2023-04-25T19:05:07.277Z,101207.66
2023-04-25T19:07:35.454Z,101209.53
2023-04-25T19:10:04.269Z,101213.94
2023-04-25T19:12:33.477Z,101211.59
2023-04-25T19:15:02.090Z,101215.59
2023-04-25T19:17:30.561Z,101215.59
2023-04-25T19:20:00.010Z,101226.69
2023-04-25T19:22:28.133Z,101222.09
2023-04-25T19:25:09.125Z,101231.06
2023-04-25T19:27:38.864Z,101233.78
2023-04-25T19:30:10.823Z,101232.97
2023-04-25T19:32:38.920Z,101238.38
2023-04-25T19:35:11.616Z,101234.63
2023-04-25T19:37:45.790Z,101229.41
2023-04-25T19:40:15.145Z,101243.00
2023-04-25T19:42:43.056Z,101240.50
2023-04-25T19:45:12.014Z,101243.84
2023-04-25T19:47:40.246Z,101245.50
2023-04-25T19:50:10.701Z,101243.84
2023-04-25T19:52:39.182Z,101244.06
2023-04-25T19:55:08.312Z,101239.63
2023-04-25T19:57:37.868Z,101238.78
2023-04-25T20:00:09.160Z,101235.22
2023-04-25T20:02:37.113Z,101246.09
2023-04-25T20:05:07.047Z,101258.03
2023-04-25T20:07:36.945Z,101254.47
2023-04-25T20:10:07.790Z,101255.31
2023-04-25T20:12:37.248Z,101250.06
2023-04-25T20:15:05.930Z,101259.06
2023-04-25T20:17:36.084Z,101264.72
2023-04-25T20:20:06.304Z,101272.88
2023-04-25T20:22:36.913Z,101265.75
2023-04-25T20:25:08.181Z,101270.34
2023-04-25T20:27:37.887Z,101274.97
2023-04-25T20:30:08.775Z,101274.13
2023-04-25T20:32:36.855Z,101274.97
2023-04-25T20:35:05.001Z,101279.56
2023-04-25T20:37:33.210Z,101276.00
2023-04-25T20:40:01.356Z,101276.19
2023-04-25T20:42:32.047Z,101273.69
2023-04-25T20:44:59.954Z,101279.97
2023-04-25T20:47:29.125Z,101279.13
2023-04-25T20:49:57.650Z,101280.81
2023-04-25T20:52:25.704Z,101274.75
2023-04-25T20:54:54.234Z,101278.50
2023-04-25T20:57:22.421Z,101284.78
2023-04-25T20:59:52.750Z,101283.94
2023-04-25T21:02:20.749Z,101284.13
2023-04-25T21:04:48.745Z,101279.53
2023-04-25T21:07:16.709Z,101283.31
2023-04-25T21:09:45.606Z,101282.06
2023-04-25T21:12:13.665Z,101281.22
2023-04-25T21:14:41.581Z,101279.75
2023-04-25T21:17:11.110Z,101279.75
2023-04-25T21:19:39.350Z,101284.34
2023-04-25T21:22:07.397Z,101294.38
2023-04-25T21:24:35.489Z,101290.00
2023-04-25T21:27:03.441Z,101291.88
2023-04-25T21:29:31.410Z,101299.81
2023-04-25T21:31:59.312Z,101300.88
2023-04-25T21:34:28.660Z,101305.47
2023-04-25T21:36:56.760Z,101310.91
2023-04-25T21:39:25.166Z,101311.72
2023-04-25T21:41:53.090Z,101314.66
2023-04-25T21:44:21.066Z,101315.50
2023-04-25T21:46:49.019Z,101310.06
2023-04-25T21:49:17.052Z,101318.44
2023-04-25T21:51:46.692Z,101314.03
2023-04-25T21:54:14.593Z,101317.59
2023-04-25T21:56:42.561Z,101310.47
2023-04-25T21:59:10.915Z,101318.63
2023-04-25T22:01:38.894Z,101307.94
2023-04-25T22:04:07.129Z,101319.66
2023-04-25T22:06:35.184Z,101318.81
2023-04-25T22:09:05.621Z,101322.59
2023-04-25T22:11:33.720Z,101321.75
2023-04-25T22:14:02.307Z,101322.59
2023-04-25T22:16:30.292Z,101330.72
2023-04-25T22:18:58.505Z,101323.00
2023-04-25T22:21:27.670Z,101329.88
2023-04-25T22:23:56.673Z,101339.91
2023-04-25T22:26:26.511Z,101333.69
2023-04-25T22:28:54.774Z,101337.19
2023-04-25T22:31:22.704Z,101345.59
2023-04-25T22:33:51.292Z,101337.44
2023-04-25T22:36:19.620Z,101341.19
2023-04-25T22:38:47.822Z,101351.22
2023-04-25T22:41:16.222Z,101359.16
2023-04-25T22:43:46.016Z,101361.03
2023-04-25T22:46:17.899Z,101359.38
2023-04-25T22:48:46.372Z,101363.13
2023-04-25T22:51:14.228Z,101365.00
2023-04-25T22:53:43.025Z,101370.44
2023-04-25T22:56:11.351Z,101379.66
2023-04-25T22:58:40.274Z,101364.38
2023-04-25T23:01:11.221Z,101359.13
2023-04-25T23:03:40.206Z,101368.97
2023-04-25T23:06:08.267Z,101363.53
2023-04-25T23:08:36.560Z,101368.13
2023-04-25T23:11:07.778Z,101371.88
2023-04-25T23:13:36.661Z,101367.47
2023-04-25T23:16:09.444Z,101368.31
2023-04-25T23:18:37.663Z,101380.03
2023-04-25T23:21:07.592Z,101361.63
2023-04-25T23:23:35.515Z,101364.75
2023-04-25T23:26:08.146Z,101368.31
2023-04-25T23:28:39.875Z,101365.59
2023-04-25T23:31:11.753Z,101370.19
2023-04-25T23:33:39.910Z,101373.75
2023-04-25T23:36:08.529Z,101377.50
2023-04-25T23:38:36.480Z,101373.34
2023-04-25T23:41:04.458Z,101372.31
2023-04-25T23:43:32.410Z,101379.41
2023-04-25T23:46:00.454Z,101373.97
2023-04-25T23:48:29.779Z,101372.69
2023-04-25T23:50:57.669Z,101378.56
2023-04-25T23:53:25.601Z,101385.66
2023-04-25T23:55:53.528Z,101382.31
2023-04-25T23:58:21.736Z,101387.75
